Terminal Aerodrome Forecast
Issued by NWS Tulsa, OK

Home | Current Version | Previous Version | Text Only | Print | Product List | Glossary On
Versions: 1 2 3 4 5 6 7 8 9 10 11 12 13 14
000
FTUS44 KTSA 232338
TAFFSM
TAF
KFSM 232338Z 2400/2424 14006KT P6SM SCT040 SCT250
     FM240200 08005KT P6SM SCT150 SCT250
     FM241600 20010KT P6SM FEW050=

USA.gov is the U.S. government's official web portal to all federal, state and local government web resources and services.